sensor_id;sensor_type;location;lat;lon;timestamp;P1;durP1;ratioP1;P2;durP2;ratioP2
47089;SDS011;32840;52.516;13.294;2023-04-12T00:02:37;4.30;;;2.38;;
47089;SDS011;32840;52.516;13.294;2023-04-12T00:05:22;3.80;;;1.77;;
47089;SDS011;32840;52.516;13.294;2023-04-12T00:08:10;3.85;;;1.98;;
47089;SDS011;32840;52.516;13.294;2023-04-12T00:10:55;5.43;;;2.00;;
47089;SDS011;32840;52.516;13.294;2023-04-12T00:13:39;3.95;;;1.95;;
47089;SDS011;32840;52.516;13.294;2023-04-12T00:16:24;7.30;;;2.55;;
47089;SDS011;32840;52.516;13.294;2023-04-12T00:19:09;4.57;;;2.35;;
47089;SDS011;32840;52.516;13.294;2023-04-12T00:21:54;5.47;;;2.83;;
47089;SDS011;32840;52.516;13.294;2023-04-12T00:24:40;4.95;;;2.60;;
47089;SDS011;32840;52.516;13.294;2023-04-12T00:27:24;4.75;;;2.40;;
47089;SDS011;32840;52.516;13.294;2023-04-12T00:30:09;9.38;;;2.55;;
47089;SDS011;32840;52.516;13.294;2023-04-12T00:32:55;5.82;;;2.22;;
47089;SDS011;32840;52.516;13.294;2023-04-12T00:35:39;7.57;;;3.40;;
47089;SDS011;32840;52.516;13.294;2023-04-12T00:38:24;6.05;;;2.42;;
47089;SDS011;32840;52.516;13.294;2023-04-12T00:41:09;9.13;;;3.45;;
47089;SDS011;32840;52.516;13.294;2023-04-12T00:43:54;20.67;;;10.88;;
47089;SDS011;32840;52.516;13.294;2023-04-12T00:46:39;5.00;;;2.53;;
47089;SDS011;32840;52.516;13.294;2023-04-12T00:49:25;6.00;;;2.30;;
47089;SDS011;32840;52.516;13.294;2023-04-12T00:52:13;6.30;;;1.95;;
47089;SDS011;32840;52.516;13.294;2023-04-12T00:55:04;8.70;;;3.60;;
47089;SDS011;32840;52.516;13.294;2023-04-12T00:57:50;7.55;;;3.08;;
47089;SDS011;32840;52.516;13.294;2023-04-12T01:00:35;7.00;;;2.30;;
47089;SDS011;32840;52.516;13.294;2023-04-12T01:03:21;7.65;;;3.85;;
47089;SDS011;32840;52.516;13.294;2023-04-12T01:09:02;6.85;;;3.72;;
47089;SDS011;32840;52.516;13.294;2023-04-12T01:15:19;10.07;;;4.07;;
47089;SDS011;32840;52.516;13.294;2023-04-12T01:18:08;5.53;;;2.58;;
47089;SDS011;32840;52.516;13.294;2023-04-12T01:21:04;5.55;;;2.72;;
47089;SDS011;32840;52.516;13.294;2023-04-12T01:27:06;6.70;;;2.78;;
47089;SDS011;32840;52.516;13.294;2023-04-12T01:29:56;5.13;;;2.00;;
47089;SDS011;32840;52.516;13.294;2023-04-12T01:32:50;10.68;;;2.50;;
47089;SDS011;32840;52.516;13.294;2023-04-12T01:35:36;10.63;;;2.95;;
47089;SDS011;32840;52.516;13.294;2023-04-12T01:38:23;3.50;;;2.40;;
47089;SDS011;32840;52.516;13.294;2023-04-12T01:41:09;5.45;;;2.80;;
47089;SDS011;32840;52.516;13.294;2023-04-12T01:43:54;4.90;;;2.58;;
47089;SDS011;32840;52.516;13.294;2023-04-12T01:46:39;7.03;;;2.88;;
47089;SDS011;32840;52.516;13.294;2023-04-12T01:49:24;6.13;;;3.00;;
47089;SDS011;32840;52.516;13.294;2023-04-12T01:52:13;6.72;;;2.67;;
47089;SDS011;32840;52.516;13.294;2023-04-12T01:55:04;4.55;;;2.47;;
47089;SDS011;32840;52.516;13.294;2023-04-12T01:57:50;6.05;;;2.80;;
47089;SDS011;32840;52.516;13.294;2023-04-12T02:00:36;7.20;;;2.90;;
47089;SDS011;32840;52.516;13.294;2023-04-12T02:03:21;6.68;;;3.17;;
47089;SDS011;32840;52.516;13.294;2023-04-12T02:06:08;8.38;;;3.13;;
47089;SDS011;32840;52.516;13.294;2023-04-12T02:08:57;4.82;;;2.65;;
47089;SDS011;32840;52.516;13.294;2023-04-12T02:11:46;4.22;;;2.72;;
47089;SDS011;32840;52.516;13.294;2023-04-12T02:14:31;5.65;;;2.95;;
47089;SDS011;32840;52.516;13.294;2023-04-12T02:17:17;7.22;;;3.17;;
47089;SDS011;32840;52.516;13.294;2023-04-12T02:20:02;6.38;;;3.08;;
47089;SDS011;32840;52.516;13.294;2023-04-12T02:22:52;7.65;;;2.78;;
47089;SDS011;32840;52.516;13.294;2023-04-12T02:25:37;8.13;;;2.65;;
47089;SDS011;32840;52.516;13.294;2023-04-12T02:28:24;8.32;;;3.28;;
47089;SDS011;32840;52.516;13.294;2023-04-12T02:31:09;4.88;;;2.67;;
47089;SDS011;32840;52.516;13.294;2023-04-12T02:33:53;6.28;;;3.13;;
47089;SDS011;32840;52.516;13.294;2023-04-12T02:36:38;4.97;;;2.90;;
47089;SDS011;32840;52.516;13.294;2023-04-12T02:39:23;8.43;;;3.03;;
47089;SDS011;32840;52.516;13.294;2023-04-12T02:42:09;6.57;;;3.08;;
47089;SDS011;32840;52.516;13.294;2023-04-12T02:44:54;6.32;;;3.03;;
47089;SDS011;32840;52.516;13.294;2023-04-12T02:47:39;7.68;;;3.40;;
47089;SDS011;32840;52.516;13.294;2023-04-12T02:50:24;7.40;;;3.00;;
47089;SDS011;32840;52.516;13.294;2023-04-12T02:53:09;5.32;;;3.00;;
47089;SDS011;32840;52.516;13.294;2023-04-12T02:55:54;6.45;;;3.38;;
47089;SDS011;32840;52.516;13.294;2023-04-12T02:58:40;8.10;;;3.55;;
47089;SDS011;32840;52.516;13.294;2023-04-12T03:01:25;6.78;;;3.55;;
47089;SDS011;32840;52.516;13.294;2023-04-12T03:04:10;8.13;;;3.38;;
47089;SDS011;32840;52.516;13.294;2023-04-12T03:06:55;9.02;;;3.25;;
47089;SDS011;32840;52.516;13.294;2023-04-12T03:09:40;5.68;;;3.42;;
47089;SDS011;32840;52.516;13.294;2023-04-12T03:12:25;8.20;;;3.85;;
47089;SDS011;32840;52.516;13.294;2023-04-12T03:15:10;6.00;;;3.40;;
47089;SDS011;32840;52.516;13.294;2023-04-12T03:17:55;9.48;;;3.63;;
47089;SDS011;32840;52.516;13.294;2023-04-12T03:20:40;7.53;;;3.63;;
47089;SDS011;32840;52.516;13.294;2023-04-12T03:23:27;9.13;;;3.90;;
47089;SDS011;32840;52.516;13.294;2023-04-12T03:26:12;10.77;;;3.92;;
47089;SDS011;32840;52.516;13.294;2023-04-12T03:28:58;11.07;;;3.70;;
47089;SDS011;32840;52.516;13.294;2023-04-12T03:31:44;7.50;;;3.40;;
47089;SDS011;32840;52.516;13.294;2023-04-12T03:34:29;8.10;;;3.60;;
47089;SDS011;32840;52.516;13.294;2023-04-12T03:37:15;7.30;;;4.10;;
47089;SDS011;32840;52.516;13.294;2023-04-12T03:39:59;7.10;;;3.55;;
47089;SDS011;32840;52.516;13.294;2023-04-12T03:42:44;6.70;;;3.90;;
47089;SDS011;32840;52.516;13.294;2023-04-12T03:45:29;7.25;;;3.55;;
47089;SDS011;32840;52.516;13.294;2023-04-12T03:48:14;5.78;;;3.70;;
47089;SDS011;32840;52.516;13.294;2023-04-12T03:50:59;9.27;;;4.03;;
47089;SDS011;32840;52.516;13.294;2023-04-12T03:53:51;6.60;;;3.40;;
47089;SDS011;32840;52.516;13.294;2023-04-12T03:56:37;8.93;;;4.05;;
47089;SDS011;32840;52.516;13.294;2023-04-12T03:59:22;7.63;;;3.85;;
47089;SDS011;32840;52.516;13.294;2023-04-12T04:02:07;6.10;;;4.00;;
47089;SDS011;32840;52.516;13.294;2023-04-12T04:04:52;6.97;;;3.58;;
47089;SDS011;32840;52.516;13.294;2023-04-12T04:07:36;11.43;;;3.78;;
47089;SDS011;32840;52.516;13.294;2023-04-12T04:10:21;9.30;;;3.55;;
47089;SDS011;32840;52.516;13.294;2023-04-12T04:13:06;9.45;;;3.60;;
47089;SDS011;32840;52.516;13.294;2023-04-12T04:15:57;6.82;;;3.80;;
47089;SDS011;32840;52.516;13.294;2023-04-12T04:18:43;6.68;;;3.65;;
47089;SDS011;32840;52.516;13.294;2023-04-12T04:21:28;7.15;;;3.40;;
47089;SDS011;32840;52.516;13.294;2023-04-12T04:24:13;10.68;;;4.20;;
47089;SDS011;32840;52.516;13.294;2023-04-12T04:26:58;10.02;;;3.95;;
47089;SDS011;32840;52.516;13.294;2023-04-12T04:29:43;5.72;;;3.05;;
47089;SDS011;32840;52.516;13.294;2023-04-12T04:32:29;7.32;;;3.47;;
47089;SDS011;32840;52.516;13.294;2023-04-12T04:35:15;7.53;;;3.70;;
47089;SDS011;32840;52.516;13.294;2023-04-12T04:38:00;18.83;;;9.02;;
47089;SDS011;32840;52.516;13.294;2023-04-12T04:40:45;8.75;;;4.25;;
47089;SDS011;32840;52.516;13.294;2023-04-12T04:43:34;12.25;;;7.22;;
47089;SDS011;32840;52.516;13.294;2023-04-12T04:46:22;9.63;;;4.90;;
47089;SDS011;32840;52.516;13.294;2023-04-12T04:49:09;9.80;;;4.50;;
47089;SDS011;32840;52.516;13.294;2023-04-12T04:51:53;10.73;;;4.72;;
47089;SDS011;32840;52.516;13.294;2023-04-12T04:54:38;9.30;;;4.32;;
47089;SDS011;32840;52.516;13.294;2023-04-12T04:57:23;5.95;;;3.85;;
47089;SDS011;32840;52.516;13.294;2023-04-12T05:00:09;8.63;;;4.18;;
47089;SDS011;32840;52.516;13.294;2023-04-12T05:02:55;8.77;;;4.38;;
47089;SDS011;32840;52.516;13.294;2023-04-12T05:09:20;9.32;;;4.72;;
47089;SDS011;32840;52.516;13.294;2023-04-12T05:12:05;7.57;;;4.63;;
47089;SDS011;32840;52.516;13.294;2023-04-12T05:14:50;8.20;;;4.60;;
47089;SDS011;32840;52.516;13.294;2023-04-12T05:17:35;9.85;;;4.68;;
47089;SDS011;32840;52.516;13.294;2023-04-12T05:20:20;9.77;;;5.07;;
47089;SDS011;32840;52.516;13.294;2023-04-12T05:23:05;13.07;;;5.70;;
47089;SDS011;32840;52.516;13.294;2023-04-12T05:25:50;9.00;;;5.60;;
47089;SDS011;32840;52.516;13.294;2023-04-12T05:28:35;10.07;;;5.97;;
47089;SDS011;32840;52.516;13.294;2023-04-12T05:31:20;13.88;;;5.40;;
47089;SDS011;32840;52.516;13.294;2023-04-12T05:34:05;12.82;;;5.90;;
47089;SDS011;32840;52.516;13.294;2023-04-12T05:36:50;12.60;;;5.53;;
47089;SDS011;32840;52.516;13.294;2023-04-12T05:39:34;9.02;;;4.80;;
47089;SDS011;32840;52.516;13.294;2023-04-12T05:42:19;10.90;;;4.88;;
47089;SDS011;32840;52.516;13.294;2023-04-12T05:45:04;8.40;;;4.93;;
47089;SDS011;32840;52.516;13.294;2023-04-12T05:47:50;9.43;;;4.57;;
47089;SDS011;32840;52.516;13.294;2023-04-12T05:50:35;8.93;;;5.05;;
47089;SDS011;32840;52.516;13.294;2023-04-12T05:53:20;11.98;;;5.85;;
47089;SDS011;32840;52.516;13.294;2023-04-12T05:56:05;10.05;;;5.20;;
47089;SDS011;32840;52.516;13.294;2023-04-12T05:58:50;15.02;;;5.25;;
47089;SDS011;32840;52.516;13.294;2023-04-12T06:01:36;11.32;;;5.75;;
47089;SDS011;32840;52.516;13.294;2023-04-12T06:04:22;13.70;;;4.95;;
47089;SDS011;32840;52.516;13.294;2023-04-12T06:07:06;12.38;;;5.00;;
47089;SDS011;32840;52.516;13.294;2023-04-12T06:09:53;9.82;;;4.70;;
47089;SDS011;32840;52.516;13.294;2023-04-12T06:12:38;9.57;;;4.75;;
47089;SDS011;32840;52.516;13.294;2023-04-12T06:15:23;9.57;;;5.10;;
47089;SDS011;32840;52.516;13.294;2023-04-12T06:18:07;6.78;;;4.68;;
47089;SDS011;32840;52.516;13.294;2023-04-12T06:20:52;8.70;;;4.90;;
47089;SDS011;32840;52.516;13.294;2023-04-12T06:23:37;12.20;;;5.65;;
47089;SDS011;32840;52.516;13.294;2023-04-12T06:26:22;10.35;;;6.20;;
47089;SDS011;32840;52.516;13.294;2023-04-12T06:29:07;8.93;;;4.68;;
47089;SDS011;32840;52.516;13.294;2023-04-12T06:31:52;9.02;;;4.82;;
47089;SDS011;32840;52.516;13.294;2023-04-12T06:34:37;10.70;;;4.50;;
47089;SDS011;32840;52.516;13.294;2023-04-12T06:37:21;9.43;;;5.32;;
47089;SDS011;32840;52.516;13.294;2023-04-12T06:40:06;12.00;;;4.75;;
47089;SDS011;32840;52.516;13.294;2023-04-12T06:42:52;8.88;;;4.32;;
47089;SDS011;32840;52.516;13.294;2023-04-12T06:45:37;9.68;;;4.88;;
47089;SDS011;32840;52.516;13.294;2023-04-12T06:48:22;11.45;;;4.53;;
47089;SDS011;32840;52.516;13.294;2023-04-12T06:51:07;8.88;;;4.88;;
47089;SDS011;32840;52.516;13.294;2023-04-12T06:53:52;9.10;;;4.60;;
47089;SDS011;32840;52.516;13.294;2023-04-12T06:56:37;7.45;;;3.72;;
47089;SDS011;32840;52.516;13.294;2023-04-12T06:59:22;10.55;;;4.00;;
47089;SDS011;32840;52.516;13.294;2023-04-12T07:02:07;9.40;;;3.40;;
47089;SDS011;32840;52.516;13.294;2023-04-12T07:04:52;8.57;;;3.88;;
47089;SDS011;32840;52.516;13.294;2023-04-12T07:07:37;7.75;;;3.25;;
47089;SDS011;32840;52.516;13.294;2023-04-12T07:10:22;7.90;;;3.25;;
47089;SDS011;32840;52.516;13.294;2023-04-12T07:13:07;6.45;;;2.47;;
47089;SDS011;32840;52.516;13.294;2023-04-12T07:15:52;9.63;;;2.70;;
47089;SDS011;32840;52.516;13.294;2023-04-12T07:18:39;10.23;;;2.92;;
47089;SDS011;32840;52.516;13.294;2023-04-12T07:21:24;7.88;;;3.35;;
47089;SDS011;32840;52.516;13.294;2023-04-12T07:24:10;5.80;;;2.25;;
47089;SDS011;32840;52.516;13.294;2023-04-12T07:26:55;8.32;;;3.30;;
47089;SDS011;32840;52.516;13.294;2023-04-12T07:29:40;12.70;;;2.80;;
47089;SDS011;32840;52.516;13.294;2023-04-12T07:32:24;9.32;;;2.53;;
47089;SDS011;32840;52.516;13.294;2023-04-12T07:35:10;7.18;;;2.50;;
47089;SDS011;32840;52.516;13.294;2023-04-12T07:37:55;5.60;;;3.00;;
47089;SDS011;32840;52.516;13.294;2023-04-12T07:40:39;4.95;;;2.60;;
47089;SDS011;32840;52.516;13.294;2023-04-12T07:43:24;8.10;;;3.15;;
47089;SDS011;32840;52.516;13.294;2023-04-12T07:46:09;6.03;;;2.80;;
47089;SDS011;32840;52.516;13.294;2023-04-12T07:48:54;8.40;;;2.80;;
47089;SDS011;32840;52.516;13.294;2023-04-12T07:51:39;5.65;;;2.97;;
47089;SDS011;32840;52.516;13.294;2023-04-12T07:54:26;8.30;;;2.80;;
47089;SDS011;32840;52.516;13.294;2023-04-12T07:57:11;7.20;;;2.47;;
47089;SDS011;32840;52.516;13.294;2023-04-12T07:59:56;7.20;;;3.08;;
47089;SDS011;32840;52.516;13.294;2023-04-12T08:02:41;6.30;;;2.90;;
47089;SDS011;32840;52.516;13.294;2023-04-12T08:05:25;7.15;;;2.22;;
47089;SDS011;32840;52.516;13.294;2023-04-12T08:08:10;10.60;;;2.65;;
47089;SDS011;32840;52.516;13.294;2023-04-12T08:10:55;6.93;;;2.17;;
47089;SDS011;32840;52.516;13.294;2023-04-12T08:13:40;7.07;;;2.42;;
47089;SDS011;32840;52.516;13.294;2023-04-12T08:16:25;9.65;;;2.72;;
47089;SDS011;32840;52.516;13.294;2023-04-12T08:19:10;6.32;;;1.85;;
47089;SDS011;32840;52.516;13.294;2023-04-12T08:21:55;6.57;;;2.00;;
47089;SDS011;32840;52.516;13.294;2023-04-12T08:24:40;4.70;;;1.63;;
47089;SDS011;32840;52.516;13.294;2023-04-12T08:27:26;5.25;;;1.92;;
47089;SDS011;32840;52.516;13.294;2023-04-12T08:30:12;6.85;;;1.55;;
47089;SDS011;32840;52.516;13.294;2023-04-12T08:32:57;6.00;;;2.05;;
47089;SDS011;32840;52.516;13.294;2023-04-12T08:35:42;5.57;;;1.52;;
47089;SDS011;32840;52.516;13.294;2023-04-12T08:38:27;4.90;;;1.27;;
47089;SDS011;32840;52.516;13.294;2023-04-12T08:41:12;6.80;;;1.67;;
47089;SDS011;32840;52.516;13.294;2023-04-12T08:43:57;8.05;;;1.52;;
47089;SDS011;32840;52.516;13.294;2023-04-12T08:46:43;8.32;;;1.75;;
47089;SDS011;32840;52.516;13.294;2023-04-12T08:49:29;6.13;;;1.85;;
47089;SDS011;32840;52.516;13.294;2023-04-12T08:52:15;7.50;;;1.42;;
47089;SDS011;32840;52.516;13.294;2023-04-12T08:55:06;5.88;;;1.40;;
47089;SDS011;32840;52.516;13.294;2023-04-12T08:57:55;5.28;;;1.60;;
47089;SDS011;32840;52.516;13.294;2023-04-12T09:00:40;5.90;;;1.52;;
47089;SDS011;32840;52.516;13.294;2023-04-12T09:03:25;4.70;;;1.77;;
47089;SDS011;32840;52.516;13.294;2023-04-12T09:06:11;4.25;;;1.63;;
47089;SDS011;32840;52.516;13.294;2023-04-12T09:08:58;6.95;;;1.50;;
47089;SDS011;32840;52.516;13.294;2023-04-12T09:11:44;8.75;;;1.83;;
47089;SDS011;32840;52.516;13.294;2023-04-12T09:14:29;6.15;;;1.65;;
47089;SDS011;32840;52.516;13.294;2023-04-12T09:17:20;5.38;;;1.42;;
47089;SDS011;32840;52.516;13.294;2023-04-12T09:23:13;4.80;;;1.55;;
47089;SDS011;32840;52.516;13.294;2023-04-12T09:26:26;5.47;;;2.40;;
47089;SDS011;32840;52.516;13.294;2023-04-12T09:29:20;6.25;;;1.85;;
47089;SDS011;32840;52.516;13.294;2023-04-12T09:32:09;4.72;;;1.70;;
47089;SDS011;32840;52.516;13.294;2023-04-12T09:34:55;6.07;;;1.60;;
47089;SDS011;32840;52.516;13.294;2023-04-12T09:37:41;6.32;;;1.90;;
47089;SDS011;32840;52.516;13.294;2023-04-12T09:40:26;4.05;;;1.42;;
47089;SDS011;32840;52.516;13.294;2023-04-12T09:43:11;5.47;;;1.80;;
47089;SDS011;32840;52.516;13.294;2023-04-12T09:46:05;7.30;;;2.17;;
47089;SDS011;32840;52.516;13.294;2023-04-12T09:48:54;5.25;;;2.47;;
47089;SDS011;32840;52.516;13.294;2023-04-12T09:51:43;5.88;;;1.70;;
47089;SDS011;32840;52.516;13.294;2023-04-12T09:54:36;5.88;;;1.50;;
47089;SDS011;32840;52.516;13.294;2023-04-12T09:57:31;4.35;;;1.67;;
47089;SDS011;32840;52.516;13.294;2023-04-12T10:00:17;3.70;;;1.80;;
47089;SDS011;32840;52.516;13.294;2023-04-12T10:03:03;7.57;;;2.45;;
47089;SDS011;32840;52.516;13.294;2023-04-12T10:05:49;5.45;;;2.00;;
47089;SDS011;32840;52.516;13.294;2023-04-12T10:08:35;7.18;;;2.10;;
47089;SDS011;32840;52.516;13.294;2023-04-12T10:11:21;5.00;;;2.00;;
47089;SDS011;32840;52.516;13.294;2023-04-12T10:14:06;6.90;;;1.95;;
47089;SDS011;32840;52.516;13.294;2023-04-12T10:16:53;5.45;;;2.05;;
47089;SDS011;32840;52.516;13.294;2023-04-12T10:19:43;5.10;;;1.98;;
47089;SDS011;32840;52.516;13.294;2023-04-12T10:22:28;5.10;;;1.98;;
47089;SDS011;32840;52.516;13.294;2023-04-12T10:25:14;6.10;;;1.95;;
47089;SDS011;32840;52.516;13.294;2023-04-12T10:28:18;7.63;;;1.98;;
47089;SDS011;32840;52.516;13.294;2023-04-12T10:34:15;8.55;;;1.92;;
47089;SDS011;32840;52.516;13.294;2023-04-12T10:37:00;5.65;;;1.80;;
47089;SDS011;32840;52.516;13.294;2023-04-12T10:39:50;6.15;;;1.80;;
47089;SDS011;32840;52.516;13.294;2023-04-12T10:42:36;5.32;;;2.08;;
47089;SDS011;32840;52.516;13.294;2023-04-12T10:51:21;4.75;;;2.03;;
47089;SDS011;32840;52.516;13.294;2023-04-12T10:56:54;6.93;;;1.70;;
47089;SDS011;32840;52.516;13.294;2023-04-12T10:59:50;7.93;;;2.20;;
47089;SDS011;32840;52.516;13.294;2023-04-12T11:02:43;5.00;;;1.73;;
47089;SDS011;32840;52.516;13.294;2023-04-12T11:05:55;6.95;;;2.35;;
47089;SDS011;32840;52.516;13.294;2023-04-12T11:08:44;7.20;;;2.35;;
47089;SDS011;32840;52.516;13.294;2023-04-12T11:11:30;8.00;;;1.95;;
47089;SDS011;32840;52.516;13.294;2023-04-12T11:14:20;4.60;;;1.92;;
47089;SDS011;32840;52.516;13.294;2023-04-12T11:19:57;8.93;;;2.10;;
47089;SDS011;32840;52.516;13.294;2023-04-12T11:22:43;5.07;;;2.13;;
47089;SDS011;32840;52.516;13.294;2023-04-12T11:32:03;6.05;;;2.25;;
47089;SDS011;32840;52.516;13.294;2023-04-12T11:34:50;8.38;;;1.90;;
47089;SDS011;32840;52.516;13.294;2023-04-12T11:37:34;7.30;;;2.10;;
47089;SDS011;32840;52.516;13.294;2023-04-12T11:40:20;7.57;;;3.35;;
47089;SDS011;32840;52.516;13.294;2023-04-12T11:43:06;11.60;;;2.22;;
47089;SDS011;32840;52.516;13.294;2023-04-12T11:49:32;4.63;;;1.85;;
47089;SDS011;32840;52.516;13.294;2023-04-12T11:52:17;4.97;;;1.70;;
47089;SDS011;32840;52.516;13.294;2023-04-12T11:55:03;6.10;;;1.60;;
47089;SDS011;32840;52.516;13.294;2023-04-12T11:57:52;7.00;;;1.88;;
47089;SDS011;32840;52.516;13.294;2023-04-12T12:00:40;5.55;;;1.73;;
47089;SDS011;32840;52.516;13.294;2023-04-12T12:03:25;6.90;;;1.77;;
47089;SDS011;32840;52.516;13.294;2023-04-12T12:06:10;8.82;;;2.38;;
47089;SDS011;32840;52.516;13.294;2023-04-12T12:08:55;6.55;;;1.88;;
47089;SDS011;32840;52.516;13.294;2023-04-12T12:11:41;5.40;;;1.70;;
47089;SDS011;32840;52.516;13.294;2023-04-12T12:14:26;6.53;;;1.67;;
47089;SDS011;32840;52.516;13.294;2023-04-12T12:17:12;6.57;;;1.80;;
47089;SDS011;32840;52.516;13.294;2023-04-12T12:20:00;7.97;;;1.80;;
47089;SDS011;32840;52.516;13.294;2023-04-12T12:22:47;5.28;;;1.80;;
47089;SDS011;32840;52.516;13.294;2023-04-12T12:25:32;8.05;;;2.00;;
47089;SDS011;32840;52.516;13.294;2023-04-12T12:28:17;4.68;;;1.70;;
47089;SDS011;32840;52.516;13.294;2023-04-12T12:31:04;7.05;;;1.70;;
47089;SDS011;32840;52.516;13.294;2023-04-12T12:33:53;5.03;;;1.40;;
47089;SDS011;32840;52.516;13.294;2023-04-12T12:36:39;5.00;;;1.55;;
47089;SDS011;32840;52.516;13.294;2023-04-12T12:39:24;5.95;;;1.40;;
47089;SDS011;32840;52.516;13.294;2023-04-12T12:42:10;7.85;;;2.50;;
47089;SDS011;32840;52.516;13.294;2023-04-12T12:44:57;6.32;;;1.88;;
47089;SDS011;32840;52.516;13.294;2023-04-12T12:47:45;7.07;;;1.50;;
47089;SDS011;32840;52.516;13.294;2023-04-12T12:50:33;8.07;;;2.67;;
47089;SDS011;32840;52.516;13.294;2023-04-12T12:53:20;7.18;;;1.65;;
47089;SDS011;32840;52.516;13.294;2023-04-12T12:56:08;4.93;;;1.80;;
47089;SDS011;32840;52.516;13.294;2023-04-12T12:58:54;6.30;;;1.63;;
47089;SDS011;32840;52.516;13.294;2023-04-12T13:01:39;7.43;;;2.05;;
47089;SDS011;32840;52.516;13.294;2023-04-12T13:04:24;6.13;;;1.50;;
47089;SDS011;32840;52.516;13.294;2023-04-12T13:07:09;5.40;;;1.58;;
47089;SDS011;32840;52.516;13.294;2023-04-12T13:09:54;4.53;;;1.35;;
47089;SDS011;32840;52.516;13.294;2023-04-12T13:12:39;5.75;;;1.67;;
47089;SDS011;32840;52.516;13.294;2023-04-12T13:15:24;5.72;;;1.80;;
47089;SDS011;32840;52.516;13.294;2023-04-12T13:18:09;5.30;;;1.55;;
47089;SDS011;32840;52.516;13.294;2023-04-12T13:20:54;6.00;;;1.25;;
47089;SDS011;32840;52.516;13.294;2023-04-12T13:23:39;3.83;;;1.20;;
47089;SDS011;32840;52.516;13.294;2023-04-12T13:26:24;8.73;;;1.67;;
47089;SDS011;32840;52.516;13.294;2023-04-12T13:29:09;6.47;;;1.67;;
47089;SDS011;32840;52.516;13.294;2023-04-12T13:31:54;8.38;;;1.85;;
47089;SDS011;32840;52.516;13.294;2023-04-12T13:34:39;5.35;;;1.42;;
47089;SDS011;32840;52.516;13.294;2023-04-12T13:37:24;8.20;;;1.63;;
47089;SDS011;32840;52.516;13.294;2023-04-12T13:40:09;9.80;;;1.50;;
47089;SDS011;32840;52.516;13.294;2023-04-12T13:42:53;6.07;;;1.75;;
47089;SDS011;32840;52.516;13.294;2023-04-12T13:45:38;5.10;;;1.98;;
47089;SDS011;32840;52.516;13.294;2023-04-12T13:48:23;3.22;;;1.52;;
47089;SDS011;32840;52.516;13.294;2023-04-12T13:51:08;6.38;;;1.58;;
47089;SDS011;32840;52.516;13.294;2023-04-12T13:53:53;8.18;;;2.20;;
47089;SDS011;32840;52.516;13.294;2023-04-12T13:56:38;7.50;;;1.77;;
47089;SDS011;32840;52.516;13.294;2023-04-12T13:59:23;4.45;;;1.75;;
47089;SDS011;32840;52.516;13.294;2023-04-12T14:02:09;5.60;;;1.48;;
47089;SDS011;32840;52.516;13.294;2023-04-12T14:04:53;5.32;;;1.70;;
47089;SDS011;32840;52.516;13.294;2023-04-12T14:07:38;5.57;;;1.45;;
47089;SDS011;32840;52.516;13.294;2023-04-12T14:10:23;5.57;;;1.85;;
47089;SDS011;32840;52.516;13.294;2023-04-12T14:13:08;4.13;;;2.25;;
47089;SDS011;32840;52.516;13.294;2023-04-12T14:15:53;4.43;;;1.60;;
47089;SDS011;32840;52.516;13.294;2023-04-12T14:18:39;7.45;;;2.03;;
47089;SDS011;32840;52.516;13.294;2023-04-12T14:21:23;5.07;;;1.58;;
47089;SDS011;32840;52.516;13.294;2023-04-12T14:24:12;4.57;;;1.73;;
47089;SDS011;32840;52.516;13.294;2023-04-12T14:26:57;4.30;;;1.70;;
47089;SDS011;32840;52.516;13.294;2023-04-12T14:29:44;4.05;;;1.60;;
47089;SDS011;32840;52.516;13.294;2023-04-12T14:32:29;6.60;;;1.67;;
47089;SDS011;32840;52.516;13.294;2023-04-12T14:35:13;6.53;;;2.45;;
47089;SDS011;32840;52.516;13.294;2023-04-12T14:37:58;10.02;;;4.38;;
47089;SDS011;32840;52.516;13.294;2023-04-12T14:40:43;8.90;;;3.90;;
47089;SDS011;32840;52.516;13.294;2023-04-12T14:43:28;7.95;;;2.13;;
47089;SDS011;32840;52.516;13.294;2023-04-12T14:46:15;14.73;;;6.25;;
47089;SDS011;32840;52.516;13.294;2023-04-12T14:49:00;6.13;;;1.63;;
47089;SDS011;32840;52.516;13.294;2023-04-12T14:51:45;9.13;;;2.80;;
47089;SDS011;32840;52.516;13.294;2023-04-12T14:54:31;6.35;;;1.48;;
47089;SDS011;32840;52.516;13.294;2023-04-12T14:57:16;9.93;;;2.88;;
47089;SDS011;32840;52.516;13.294;2023-04-12T15:00:01;4.80;;;1.42;;
47089;SDS011;32840;52.516;13.294;2023-04-12T15:02:47;5.40;;;1.45;;
47089;SDS011;32840;52.516;13.294;2023-04-12T15:05:33;7.07;;;2.08;;
47089;SDS011;32840;52.516;13.294;2023-04-12T15:08:18;3.72;;;1.40;;
47089;SDS011;32840;52.516;13.294;2023-04-12T15:11:03;3.90;;;1.42;;
47089;SDS011;32840;52.516;13.294;2023-04-12T15:13:49;5.22;;;2.15;;
47089;SDS011;32840;52.516;13.294;2023-04-12T15:16:34;6.25;;;2.10;;
47089;SDS011;32840;52.516;13.294;2023-04-12T15:19:21;9.95;;;3.63;;
47089;SDS011;32840;52.516;13.294;2023-04-12T15:22:07;4.97;;;1.83;;
47089;SDS011;32840;52.516;13.294;2023-04-12T15:24:52;3.30;;;1.52;;
47089;SDS011;32840;52.516;13.294;2023-04-12T15:27:39;6.10;;;1.85;;
47089;SDS011;32840;52.516;13.294;2023-04-12T15:30:24;6.97;;;2.17;;
47089;SDS011;32840;52.516;13.294;2023-04-12T15:33:09;2.45;;;1.67;;
47089;SDS011;32840;52.516;13.294;2023-04-12T15:35:54;6.72;;;3.05;;
47089;SDS011;32840;52.516;13.294;2023-04-12T15:38:41;4.65;;;2.53;;
47089;SDS011;32840;52.516;13.294;2023-04-12T15:41:32;4.43;;;2.10;;
47089;SDS011;32840;52.516;13.294;2023-04-12T15:44:20;3.40;;;1.83;;
47089;SDS011;32840;52.516;13.294;2023-04-12T15:47:08;6.28;;;2.15;;
47089;SDS011;32840;52.516;13.294;2023-04-12T15:49:53;5.80;;;2.58;;
47089;SDS011;32840;52.516;13.294;2023-04-12T15:52:37;5.47;;;2.50;;
47089;SDS011;32840;52.516;13.294;2023-04-12T15:55:25;6.50;;;2.60;;
47089;SDS011;32840;52.516;13.294;2023-04-12T15:58:10;4.30;;;2.50;;
47089;SDS011;32840;52.516;13.294;2023-04-12T16:00:56;8.98;;;3.22;;
47089;SDS011;32840;52.516;13.294;2023-04-12T16:03:41;8.43;;;3.13;;
47089;SDS011;32840;52.516;13.294;2023-04-12T16:06:30;8.20;;;3.10;;
47089;SDS011;32840;52.516;13.294;2023-04-12T16:09:18;10.98;;;5.95;;
47089;SDS011;32840;52.516;13.294;2023-04-12T16:12:05;11.18;;;3.55;;
47089;SDS011;32840;52.516;13.294;2023-04-12T16:14:50;7.75;;;3.00;;
47089;SDS011;32840;52.516;13.294;2023-04-12T16:17:35;6.70;;;3.45;;
47089;SDS011;32840;52.516;13.294;2023-04-12T16:20:20;7.32;;;3.03;;
47089;SDS011;32840;52.516;13.294;2023-04-12T16:23:05;8.10;;;3.38;;
47089;SDS011;32840;52.516;13.294;2023-04-12T16:25:50;8.13;;;3.20;;
47089;SDS011;32840;52.516;13.294;2023-04-12T16:28:35;8.80;;;3.67;;
47089;SDS011;32840;52.516;13.294;2023-04-12T16:31:21;8.20;;;3.50;;
47089;SDS011;32840;52.516;13.294;2023-04-12T16:34:08;10.13;;;3.38;;
47089;SDS011;32840;52.516;13.294;2023-04-12T16:36:54;7.03;;;3.10;;
47089;SDS011;32840;52.516;13.294;2023-04-12T16:39:39;10.13;;;3.25;;
47089;SDS011;32840;52.516;13.294;2023-04-12T16:42:23;7.95;;;3.75;;
47089;SDS011;32840;52.516;13.294;2023-04-12T16:45:11;6.63;;;2.92;;
47089;SDS011;32840;52.516;13.294;2023-04-12T16:47:58;5.43;;;3.38;;
47089;SDS011;32840;52.516;13.294;2023-04-12T16:50:44;10.68;;;3.17;;
47089;SDS011;32840;52.516;13.294;2023-04-12T16:53:30;6.57;;;3.00;;
47089;SDS011;32840;52.516;13.294;2023-04-12T16:56:16;6.35;;;2.80;;
47089;SDS011;32840;52.516;13.294;2023-04-12T16:59:02;7.63;;;3.47;;
47089;SDS011;32840;52.516;13.294;2023-04-12T17:01:47;10.07;;;2.60;;
47089;SDS011;32840;52.516;13.294;2023-04-12T17:04:32;7.68;;;2.90;;
47089;SDS011;32840;52.516;13.294;2023-04-12T17:07:17;8.63;;;3.22;;